Terminal Aerodrome Forecast
Issued by NWS

Home | Current Version | Previous Version | Text Only | Print | Product List | Glossary On
Versions: 1 2 3 4 5 6 7 8 9 10 11 12 13
000
FTUS43 KGLD 231120
TAFMCK
TAF
KMCK 231120Z 2312/2412 14007KT P6SM BKN200
     FM232100 17014KT P6SM VCTS BKN040CB
     FM240000 12011KT P6SM SHRA VCTS OVC030CB
     FM240400 14010KT P6SM SHRA OVC030=

USA.gov is the U.S. government's official web portal to all federal, state and local government web resources and services.